createdAt,value
2022-11-29T00:04:59.010Z,3.71
2022-11-29T00:10:01.162Z,3.80
2022-11-29T00:15:03.443Z,3.82
2022-11-29T00:20:06.094Z,3.74
2022-11-29T00:25:08.018Z,3.72
2022-11-29T00:30:10.062Z,3.86
2022-11-29T00:35:12.359Z,3.83
2022-11-29T00:40:14.478Z,3.90
2022-11-29T00:45:16.360Z,3.88
2022-11-29T00:50:18.040Z,3.99
2022-11-29T00:55:19.719Z,3.96
2022-11-29T01:00:21.540Z,4.14
2022-11-29T01:05:23.218Z,4.26
2022-11-29T01:10:25.949Z,4.33
2022-11-29T01:15:27.762Z,4.45
2022-11-29T01:20:29.481Z,4.61
2022-11-29T01:25:32.133Z,4.46
2022-11-29T01:30:33.941Z,4.65
2022-11-29T01:35:35.607Z,4.65
2022-11-29T01:40:37.299Z,4.62
2022-11-29T01:45:39.738Z,4.43
2022-11-29T01:50:42.561Z,4.52
2022-11-29T01:55:50.691Z,4.53
2022-11-29T02:00:52.645Z,4.44
2022-11-29T02:05:55.246Z,4.54
2022-11-29T02:11:12.089Z,4.46
2022-11-29T02:16:24.600Z,4.23
2022-11-29T02:21:41.404Z,4.18
2022-11-29T02:27:04.894Z,4.41
2022-11-29T02:32:41.829Z,4.41
2022-11-29T02:37:46.147Z,4.36
2022-11-29T02:42:56.861Z,4.32
2022-11-29T02:48:31.047Z,4.43
2022-11-29T02:53:41.900Z,4.21
2022-11-29T02:58:49.330Z,4.21
2022-11-29T03:04:02.420Z,4.12
2022-11-29T03:09:27.846Z,4.28
2022-11-29T03:14:55.829Z,4.37
2022-11-29T03:20:21.280Z,4.22
2022-11-29T03:25:29.683Z,4.12
2022-11-29T03:30:34.499Z,4.25
2022-11-29T03:35:54.432Z,4.15
2022-11-29T03:41:17.860Z,4.35
2022-11-29T03:46:46.579Z,4.21
2022-11-29T03:52:16.180Z,4.13
2022-11-29T03:57:25.607Z,3.98
2022-11-29T04:02:50.103Z,4.10
2022-11-29T04:08:01.006Z,4.02
2022-11-29T04:13:35.492Z,3.99
2022-11-29T04:18:57.110Z,4.12
2022-11-29T04:24:07.549Z,4.24
2022-11-29T04:29:27.974Z,4.08
2022-11-29T04:34:44.908Z,3.97
2022-11-29T04:40:07.477Z,3.94
2022-11-29T04:45:30.654Z,4.14
2022-11-29T04:50:38.130Z,4.05
2022-11-29T04:55:56.787Z,4.07
2022-11-29T05:01:33.109Z,4.10
2022-11-29T05:07:09.036Z,3.86
2022-11-29T05:12:10.800Z,3.89
2022-11-29T05:17:29.918Z,4.13
2022-11-29T05:23:04.453Z,4.01
2022-11-29T05:28:21.388Z,4.02
2022-11-29T05:34:01.399Z,4.35
2022-11-29T05:39:14.769Z,4.11
2022-11-29T05:44:27.372Z,4.00
2022-11-29T05:49:38.606Z,3.95
2022-11-29T05:55:04.518Z,4.08
2022-11-29T06:00:07.828Z,4.00
2022-11-29T06:05:40.338Z,3.98
2022-11-29T06:10:55.734Z,4.04
2022-11-29T06:16:16.206Z,3.95
2022-11-29T06:21:26.113Z,3.97
2022-11-29T06:26:58.916Z,4.16
2022-11-29T06:32:29.478Z,3.97
2022-11-29T06:37:42.908Z,4.24
2022-11-29T06:42:44.611Z,4.23
2022-11-29T06:47:52.838Z,4.20
2022-11-29T06:53:05.826Z,4.21
2022-11-29T06:58:19.824Z,4.26
2022-11-29T07:03:46.457Z,4.08
2022-11-29T07:08:56.893Z,4.02
2022-11-29T07:13:59.145Z,4.18
2022-11-29T07:19:28.731Z,4.27
2022-11-29T07:24:45.909Z,4.25
2022-11-29T07:30:09.610Z,4.24
2022-11-29T07:35:27.628Z,4.22
2022-11-29T07:40:50.544Z,4.35
2022-11-29T07:45:52.373Z,4.29
2022-11-29T07:50:56.221Z,4.21
2022-11-29T07:55:58.613Z,4.20
2022-11-29T08:01:00.389Z,4.31
2022-11-29T08:06:02.537Z,4.50
2022-11-29T08:11:10.549Z,4.61
2022-11-29T08:16:19.097Z,4.62
2022-11-29T08:21:20.977Z,4.68
2022-11-29T08:26:25.566Z,4.52
2022-11-29T08:31:31.994Z,4.65
2022-11-29T08:36:34.209Z,4.59
2022-11-29T08:41:36.088Z,4.72
2022-11-29T08:46:56.237Z,4.63
2022-11-29T08:52:18.347Z,4.70
2022-11-29T09:02:41.874Z,4.62
2022-11-29T09:07:43.921Z,4.46
2022-11-29T09:12:50.547Z,4.73
2022-11-29T09:17:52.535Z,4.66
2022-11-29T09:22:54.403Z,4.64
2022-11-29T09:27:58.937Z,4.76
2022-11-29T09:33:05.327Z,4.66
2022-11-29T09:38:07.057Z,4.84
2022-11-29T09:43:32.941Z,4.95
2022-11-29T09:48:53.140Z,4.81
2022-11-29T09:54:23.449Z,4.86
2022-11-29T09:59:35.781Z,4.90
2022-11-29T10:04:40.940Z,5.11
2022-11-29T10:09:48.873Z,5.05
2022-11-29T10:15:02.698Z,5.17
2022-11-29T10:20:13.018Z,5.15
2022-11-29T10:25:46.257Z,5.12
2022-11-29T10:30:48.555Z,5.24
2022-11-29T10:35:55.641Z,5.20
2022-11-29T10:41:15.919Z,5.40
2022-11-29T10:46:31.422Z,5.24
2022-11-29T10:51:35.008Z,5.37
2022-11-29T10:56:37.814Z,5.22
2022-11-29T11:01:44.054Z,5.40
2022-11-29T11:06:48.957Z,5.40
2022-11-29T11:11:57.615Z,5.39
2022-11-29T11:17:22.757Z,5.54
2022-11-29T11:22:26.399Z,5.61
2022-11-29T11:27:41.688Z,5.66
2022-11-29T11:33:22.833Z,5.45
2022-11-29T11:38:24.483Z,5.36
2022-11-29T11:43:26.390Z,5.50
2022-11-29T11:48:28.768Z,5.43
2022-11-29T11:53:36.496Z,5.59
2022-11-29T11:58:47.607Z,5.66
2022-11-29T12:04:06.553Z,5.56
2022-11-29T12:09:08.469Z,5.62
2022-11-29T12:14:22.028Z,5.51
2022-11-29T12:19:31.999Z,5.63
2022-11-29T12:24:53.005Z,5.37
2022-11-29T12:29:55.092Z,5.46
2022-11-29T12:35:25.147Z,5.46
2022-11-29T12:40:58.683Z,5.14
2022-11-29T12:46:12.738Z,5.19
2022-11-29T12:51:32.971Z,5.24
2022-11-29T12:56:41.809Z,5.06
2022-11-29T13:02:00.605Z,5.17
2022-11-29T13:07:10.933Z,5.28
2022-11-29T13:12:22.796Z,5.36
2022-11-29T13:17:37.742Z,5.35
2022-11-29T13:22:42.777Z,5.42
2022-11-29T13:27:58.261Z,5.40
2022-11-29T13:33:07.567Z,5.40
2022-11-29T13:38:09.191Z,5.47
2022-11-29T13:43:35.617Z,5.38
2022-11-29T13:48:48.876Z,5.24
2022-11-29T13:53:51.047Z,5.45
2022-11-29T13:58:54.662Z,5.11
2022-11-29T14:04:04.706Z,5.20
2022-11-29T14:09:24.931Z,5.00
2022-11-29T14:14:33.054Z,4.98
2022-11-29T14:19:36.734Z,5.05
2022-11-29T14:24:42.328Z,5.21
2022-11-29T14:29:49.973Z,5.06
2022-11-29T14:34:57.567Z,5.15
2022-11-29T14:40:04.320Z,5.15
2022-11-29T14:45:23.336Z,5.07
2022-11-29T14:50:43.080Z,4.81
2022-11-29T14:55:44.890Z,4.84
2022-11-29T15:00:49.568Z,5.00
2022-11-29T15:05:57.588Z,4.81
2022-11-29T15:11:05.804Z,4.78
2022-11-29T15:16:19.375Z,4.92
2022-11-29T15:21:32.718Z,4.93
2022-11-29T15:26:34.386Z,4.97
2022-11-29T15:31:36.508Z,4.83
2022-11-29T15:36:43.206Z,5.06
2022-11-29T15:41:45.014Z,4.87
2022-11-29T15:46:46.682Z,4.78
2022-11-29T15:51:53.330Z,4.60
2022-11-29T15:57:02.979Z,4.53
2022-11-29T16:02:17.145Z,4.61
2022-11-29T16:07:20.417Z,4.55
2022-11-29T16:12:22.172Z,4.62
2022-11-29T16:17:29.576Z,4.73
2022-11-29T16:22:32.204Z,4.61
2022-11-29T16:27:36.291Z,4.74
2022-11-29T16:32:43.064Z,4.59
2022-11-29T16:37:46.721Z,4.58
2022-11-29T16:43:23.934Z,4.49
2022-11-29T16:48:26.621Z,4.64
2022-11-29T16:53:43.390Z,4.63
2022-11-29T16:59:25.933Z,4.59
2022-11-29T17:04:11.126Z,4.77
2022-11-29T17:09:24.216Z,4.70
2022-11-29T17:14:25.943Z,4.52
2022-11-29T17:19:29.919Z,4.62
2022-11-29T17:24:31.770Z,4.35
2022-11-29T17:29:33.618Z,4.49
2022-11-29T17:34:35.253Z,4.37
2022-11-29T17:39:36.870Z,4.54
2022-11-29T17:44:38.510Z,4.50
2022-11-29T17:49:40.199Z,4.43
2022-11-29T17:54:41.834Z,4.62
2022-11-29T17:59:43.632Z,4.39
2022-11-29T18:04:45.475Z,4.48
2022-11-29T18:09:48.487Z,4.38
2022-11-29T18:14:50.893Z,4.46
2022-11-29T18:19:52.528Z,4.62
2022-11-29T18:25:05.389Z,4.42
2022-11-29T18:30:16.335Z,4.40
2022-11-29T18:35:17.971Z,4.22
2022-11-29T18:40:20.125Z,4.45
2022-11-29T18:45:21.755Z,4.35
2022-11-29T18:50:23.474Z,4.36
2022-11-29T18:55:26.210Z,4.40
2022-11-29T19:00:27.854Z,4.27
2022-11-29T19:05:29.519Z,4.38
2022-11-29T19:10:31.370Z,4.25
2022-11-29T19:15:33.185Z,4.55
2022-11-29T19:20:34.960Z,4.52
2022-11-29T19:25:36.848Z,4.42
2022-11-29T19:30:38.702Z,4.51
2022-11-29T19:35:40.557Z,4.39
2022-11-29T19:40:42.307Z,4.27
2022-11-29T19:45:44.099Z,4.20
2022-11-29T19:50:46.359Z,4.32
2022-11-29T19:55:48.062Z,4.35
2022-11-29T20:00:49.831Z,4.36
2022-11-29T20:05:55.529Z,4.69
2022-11-29T20:11:08.595Z,4.46
2022-11-29T20:16:13.006Z,4.51
2022-11-29T20:21:18.642Z,4.30
2022-11-29T20:26:20.724Z,4.22
2022-11-29T20:31:23.401Z,4.39
2022-11-29T20:36:55.265Z,4.18
2022-11-29T20:42:12.670Z,4.50
2022-11-29T20:47:17.902Z,4.29
2022-11-29T20:52:38.268Z,4.34
2022-11-29T20:57:40.083Z,4.50
2022-11-29T21:02:41.910Z,4.26
2022-11-29T21:07:45.369Z,4.35
2022-11-29T21:12:47.740Z,4.16
2022-11-29T21:17:49.901Z,3.95
2022-11-29T21:23:00.696Z,3.98
2022-11-29T21:28:02.914Z,3.97
2022-11-29T21:33:05.060Z,3.84
2022-11-29T21:38:14.784Z,4.05
2022-11-29T21:43:16.902Z,3.75
2022-11-29T21:48:37.715Z,3.72
2022-11-29T21:53:40.555Z,3.70
2022-11-29T21:58:42.249Z,3.82
2022-11-29T22:03:44.584Z,3.67
2022-11-29T22:08:48.635Z,3.65
2022-11-29T22:14:12.035Z,3.54
2022-11-29T22:19:18.931Z,3.79
2022-11-29T22:24:22.844Z,3.83
2022-11-29T22:29:25.355Z,3.66
2022-11-29T22:34:27.628Z,3.71
2022-11-29T22:39:29.291Z,3.73
2022-11-29T22:44:31.361Z,3.40
2022-11-29T22:49:33.393Z,3.68
2022-11-29T22:54:35.033Z,3.60
2022-11-29T22:59:36.669Z,3.42
2022-11-29T23:04:38.349Z,3.60
2022-11-29T23:09:40.008Z,3.52
2022-11-29T23:14:41.662Z,3.45
2022-11-29T23:19:43.295Z,3.45
2022-11-29T23:24:45.193Z,3.69
2022-11-29T23:29:47.029Z,3.59
2022-11-29T23:34:49.349Z,3.66
2022-11-29T23:39:51.061Z,3.88
2022-11-29T23:44:52.698Z,3.69
2022-11-29T23:49:54.369Z,3.81
2022-11-29T23:54:56.033Z,3.79
2022-11-29T23:59:58.092Z,3.46
